Aiken, Texas
Current Conditions -  °F | °C
As of 3:35 PM on Thursday 23 Oct 2014 (Local Time) from KPVW Reporting Station
Clear Clear  
Wind Chill: 73°   Ceiling: Unl
Heat Index: 73°   Visibility: 10mi
Dew Point: 59°   Wind: 6mph
Humidity: 63%   Direction: 210°SSW
Pressure: 30.07"   Gusts: NA
Location:  34.14°N, 101.53°W
Report Text: KPVW 232035Z AUTO 21005KT 10SM CLR 23/15 A3007 RMK AO2 T02250152
Loading
Personal Weather Stations






























Interactive Weather Map New forecast layout! Learn more

10-Day Weather Forecast

Advertisements
Track Severe Weather on mobile